createdAt,value
2019-04-06T00:00:44.331Z,95.01
2019-04-06T00:03:13.362Z,95.12
2019-04-06T00:05:41.644Z,95.11
2019-04-06T00:08:09.899Z,94.76
2019-04-06T00:10:38.179Z,94.04
2019-04-06T00:13:06.466Z,93.75
2019-04-06T00:15:34.757Z,93.99
2019-04-06T00:18:02.979Z,93.74
2019-04-06T00:20:31.826Z,94.17
2019-04-06T00:23:00.087Z,94.55
2019-04-06T00:25:29.140Z,94.67
2019-04-06T00:27:57.394Z,94.68
2019-04-06T00:30:25.749Z,94.89
2019-04-06T00:32:55.647Z,94.79
2019-04-06T00:35:24.504Z,94.72
2019-04-06T00:37:52.764Z,94.70
2019-04-06T00:40:21.042Z,94.81
2019-04-06T00:42:49.298Z,94.83
2019-04-06T00:45:17.574Z,94.81
2019-04-06T00:47:45.832Z,94.99
2019-04-06T00:50:14.683Z,95.16
2019-04-06T00:52:42.939Z,95.14
2019-04-06T00:55:11.222Z,95.08
2019-04-06T00:57:39.484Z,95.07
2019-04-06T01:00:07.767Z,95.12
2019-04-06T01:02:36.026Z,95.09
2019-04-06T01:05:05.917Z,94.98
2019-04-06T01:07:34.175Z,94.98
2019-04-06T01:10:02.471Z,95.05
2019-04-06T01:12:32.077Z,95.03
2019-04-06T01:15:00.364Z,94.92
2019-04-06T01:17:28.983Z,95.04
2019-04-06T01:19:57.268Z,95.10
2019-04-06T01:22:25.528Z,95.10
2019-04-06T01:24:53.811Z,95.04
2019-04-06T01:27:22.066Z,94.95
2019-04-06T01:29:50.327Z,95.15
2019-04-06T01:32:18.615Z,95.17
2019-04-06T01:34:46.870Z,95.22
2019-04-06T01:37:15.154Z,95.07
2019-04-06T01:39:43.419Z,95.11
2019-04-06T01:42:11.703Z,95.08
2019-04-06T01:44:39.967Z,95.00
2019-04-06T01:47:08.256Z,95.00
2019-04-06T01:49:36.522Z,95.10
2019-04-06T01:52:04.807Z,95.18
2019-04-06T01:54:33.068Z,95.16
2019-04-06T01:57:01.347Z,95.41
2019-04-06T01:59:29.611Z,95.51
2019-04-06T02:02:01.977Z,95.28
2019-04-06T02:04:30.903Z,95.33
2019-04-06T02:06:59.255Z,95.49
2019-04-06T02:09:27.520Z,95.64
2019-04-06T02:11:56.568Z,95.70
2019-04-06T02:14:24.829Z,95.68
2019-04-06T02:16:53.110Z,95.71
2019-04-06T02:19:21.371Z,95.81
2019-04-06T02:21:49.655Z,95.88
2019-04-06T02:24:18.507Z,95.80
2019-04-06T02:26:47.555Z,95.74
2019-04-06T02:29:16.098Z,95.68
2019-04-06T02:31:48.462Z,95.59
2019-04-06T02:34:27.124Z,95.59
2019-04-06T02:36:57.033Z,95.41
2019-04-06T02:39:43.740Z,95.31
2019-04-06T02:42:14.202Z,95.04
2019-04-06T02:44:42.460Z,95.09
2019-04-06T02:47:10.801Z,95.23
2019-04-06T02:49:39.011Z,95.09
2019-04-06T02:52:07.294Z,95.01
2019-04-06T02:54:36.532Z,94.98
2019-04-06T02:57:04.823Z,94.79
2019-04-06T02:59:33.077Z,94.71
2019-04-06T03:02:01.487Z,94.76
2019-04-06T03:04:29.805Z,94.80
2019-04-06T03:06:58.065Z,94.86
2019-04-06T03:09:26.898Z,94.83
2019-04-06T03:11:55.170Z,94.87
2019-04-06T03:14:23.446Z,94.94
2019-04-06T03:16:51.718Z,94.79
2019-04-06T03:19:19.974Z,95.01
2019-04-06T03:21:48.263Z,95.12
2019-04-06T03:24:17.176Z,95.11
2019-04-06T03:26:59.424Z,95.10
2019-04-06T03:29:15.432Z,94.86
2019-04-06T03:31:44.884Z,94.91
2019-04-06T03:34:13.324Z,94.82
2019-04-06T03:36:41.609Z,94.71
2019-04-06T03:39:09.868Z,94.59
2019-04-06T03:41:38.226Z,94.90
2019-04-06T03:44:07.187Z,94.74
2019-04-06T03:46:35.515Z,94.62
2019-04-06T03:49:03.728Z,94.56
2019-04-06T03:51:32.017Z,94.36
2019-04-06T03:54:00.839Z,94.19
2019-04-06T03:56:29.131Z,94.43
2019-04-06T04:01:29.779Z,94.10
2019-04-06T04:03:58.034Z,94.08
2019-04-06T04:06:26.295Z,94.21
2019-04-06T04:08:54.589Z,94.35
2019-04-06T04:11:22.847Z,94.01
2019-04-06T04:13:51.133Z,93.98
2019-04-06T04:16:19.960Z,93.91
2019-04-06T04:18:48.239Z,93.94
2019-04-06T04:21:16.500Z,93.94
2019-04-06T04:23:44.780Z,93.74
2019-04-06T04:26:13.039Z,93.68
2019-04-06T04:28:41.652Z,93.67
2019-04-06T04:31:09.907Z,93.86
2019-04-06T04:33:38.188Z,93.84
2019-04-06T04:36:06.452Z,93.83
2019-04-06T04:38:34.865Z,93.96
2019-04-06T04:41:03.277Z,93.97
2019-04-06T04:43:33.487Z,94.04
2019-04-06T04:46:01.744Z,93.87
2019-04-06T04:48:30.121Z,93.82
2019-04-06T04:50:58.362Z,93.91
2019-04-06T04:53:26.651Z,94.18
2019-04-06T04:55:54.907Z,94.08
2019-04-06T04:58:23.402Z,94.32
2019-04-06T05:00:51.728Z,94.17
2019-04-06T05:03:20.174Z,94.20
2019-04-06T05:05:48.450Z,94.16
2019-04-06T05:08:16.734Z,94.07
2019-04-06T05:10:44.995Z,94.21
2019-04-06T05:13:13.491Z,94.34
2019-04-06T05:16:04.594Z,94.38
2019-04-06T05:18:32.881Z,94.44
2019-04-06T05:21:01.138Z,94.05
2019-04-06T05:23:29.424Z,94.01
2019-04-06T05:25:58.257Z,94.08
2019-04-06T05:28:26.539Z,94.46
2019-04-06T05:30:54.802Z,93.95
2019-04-06T05:33:23.091Z,93.98
2019-04-06T05:35:51.352Z,93.75
2019-04-06T05:38:19.760Z,93.71
2019-04-06T05:40:47.980Z,93.39
2019-04-06T05:43:16.332Z,93.29
2019-04-06T05:45:44.743Z,93.36
2019-04-06T05:48:13.028Z,93.50
2019-04-06T05:50:42.727Z,93.32
2019-04-06T05:53:11.100Z,93.26
2019-04-06T05:55:39.338Z,92.61
2019-04-06T05:58:10.662Z,92.92
2019-04-06T06:00:40.130Z,93.10
2019-04-06T06:03:08.575Z,92.96
2019-04-06T06:05:40.235Z,92.88
2019-04-06T06:08:07.820Z,92.89
2019-04-06T06:10:38.312Z,93.05
2019-04-06T06:13:06.597Z,92.83
2019-04-06T06:15:34.976Z,92.49
2019-04-06T06:18:03.213Z,92.65
2019-04-06T06:20:32.363Z,92.49
2019-04-06T06:23:00.602Z,92.74
2019-04-06T06:25:29.636Z,92.36
2019-04-06T06:27:58.082Z,92.58
2019-04-06T06:30:27.158Z,92.18
2019-04-06T06:32:55.585Z,92.11
2019-04-06T06:35:23.908Z,92.13
2019-04-06T06:37:52.791Z,92.43
2019-04-06T06:40:21.053Z,91.98
2019-04-06T06:42:49.466Z,91.81
2019-04-06T06:45:17.695Z,91.84
2019-04-06T06:47:45.965Z,91.52
2019-04-06T06:50:14.225Z,91.95
2019-04-06T06:52:43.372Z,91.43
2019-04-06T06:55:11.816Z,90.92
2019-04-06T06:57:40.109Z,91.18
2019-04-06T07:00:09.504Z,91.31
2019-04-06T07:02:37.789Z,91.42
2019-04-06T07:05:06.625Z,91.55
2019-04-06T07:07:34.915Z,91.47
2019-04-06T07:10:05.732Z,91.07
2019-04-06T07:12:33.032Z,91.28
2019-04-06T07:15:01.306Z,90.88
2019-04-06T07:17:29.566Z,90.58
2019-04-06T07:19:57.859Z,90.26
2019-04-06T07:22:26.291Z,90.28
2019-04-06T07:24:54.576Z,89.88
2019-04-06T07:27:22.835Z,89.79
2019-04-06T07:29:51.252Z,89.66
2019-04-06T07:32:19.527Z,89.52
2019-04-06T07:34:47.809Z,89.07
2019-04-06T07:37:16.066Z,88.84
2019-04-06T07:39:44.351Z,89.10
2019-04-06T07:42:12.626Z,88.45
2019-04-06T07:44:40.919Z,88.61
2019-04-06T07:47:09.175Z,88.63
2019-04-06T07:49:37.460Z,88.50
2019-04-06T07:52:05.932Z,88.47
2019-04-06T07:54:34.192Z,88.26
2019-04-06T07:57:02.517Z,87.83
2019-04-06T07:59:30.807Z,87.50
2019-04-06T08:01:59.067Z,86.63
2019-04-06T08:04:27.427Z,87.41
2019-04-06T08:06:55.812Z,85.82
2019-04-06T08:09:24.820Z,85.67
2019-04-06T08:11:53.287Z,86.07
2019-04-06T08:14:21.538Z,84.99
2019-04-06T08:16:49.846Z,85.49
2019-04-06T08:19:18.075Z,84.16
2019-04-06T08:21:46.329Z,84.50
2019-04-06T08:24:15.284Z,82.81
2019-04-06T08:26:46.026Z,83.20
2019-04-06T08:29:13.566Z,83.61
2019-04-06T08:31:42.098Z,84.41
2019-04-06T08:34:10.351Z,83.59
2019-04-06T08:36:38.643Z,82.60
2019-04-06T08:39:08.258Z,81.78
2019-04-06T08:41:36.565Z,82.24
2019-04-06T08:44:04.852Z,81.33
2019-04-06T08:46:33.136Z,79.41
2019-04-06T08:49:01.397Z,77.20
2019-04-06T08:51:29.758Z,76.90
2019-04-06T08:53:58.024Z,77.10
2019-04-06T08:56:27.704Z,75.34
2019-04-06T08:58:55.907Z,76.88
2019-04-06T09:01:24.186Z,76.87
2019-04-06T09:03:52.516Z,73.89
2019-04-06T09:06:21.159Z,72.59
2019-04-06T09:08:50.089Z,73.89
2019-04-06T09:11:18.489Z,76.25
2019-04-06T09:13:47.380Z,72.71
2019-04-06T09:16:15.669Z,72.60
2019-04-06T09:18:43.929Z,70.90
2019-04-06T09:21:12.214Z,73.75
2019-04-06T09:23:40.473Z,70.42
2019-04-06T09:26:08.755Z,70.43
2019-04-06T09:28:37.025Z,71.85
2019-04-06T09:31:05.364Z,69.42
2019-04-06T09:33:33.643Z,71.82
2019-04-06T09:36:02.686Z,69.34
2019-04-06T09:38:30.935Z,69.34
2019-04-06T09:40:59.448Z,70.26
2019-04-06T09:43:27.800Z,72.50
2019-04-06T09:46:14.723Z,70.28
2019-04-06T09:49:00.695Z,66.64
2019-04-06T09:51:39.607Z,68.73
2019-04-06T09:54:09.512Z,68.30
2019-04-06T09:56:55.927Z,67.55
2019-04-06T09:59:35.303Z,68.96
2019-04-06T10:02:02.636Z,68.31
2019-04-06T10:04:32.537Z,67.90
2019-04-06T10:07:03.234Z,67.20
2019-04-06T10:09:50.893Z,67.41
2019-04-06T10:12:20.991Z,67.83
2019-04-06T10:15:09.983Z,65.93
2019-04-06T10:17:40.481Z,68.45
2019-04-06T10:20:22.849Z,68.11
2019-04-06T10:23:09.220Z,65.23
2019-04-06T10:25:41.550Z,66.01
2019-04-06T10:28:11.476Z,65.62
2019-04-06T10:30:41.380Z,63.03
2019-04-06T10:33:23.523Z,64.69
2019-04-06T10:35:56.079Z,63.79
2019-04-06T10:38:26.067Z,60.87
2019-04-06T10:41:02.413Z,62.01
2019-04-06T10:43:41.439Z,61.78
2019-04-06T10:46:20.369Z,62.46
2019-04-06T10:48:50.868Z,63.38
2019-04-06T10:51:23.170Z,60.14
2019-04-06T10:54:06.168Z,62.55
2019-04-06T10:56:39.259Z,59.76
2019-04-06T10:59:09.215Z,60.16
2019-04-06T11:01:39.087Z,60.77
2019-04-06T11:04:12.199Z,60.31
2019-04-06T11:06:44.765Z,60.50
2019-04-06T11:09:30.835Z,60.83
2019-04-06T11:12:03.428Z,57.92
2019-04-06T11:14:48.447Z,57.66
2019-04-06T11:17:35.223Z,58.61
2019-04-06T11:20:09.707Z,58.71
2019-04-06T11:22:51.831Z,57.11
2019-04-06T11:25:37.077Z,57.82
2019-04-06T11:28:06.979Z,57.65
2019-04-06T11:30:54.638Z,55.79
2019-04-06T11:33:24.537Z,54.49
2019-04-06T11:36:03.730Z,57.43
2019-04-06T11:38:52.071Z,55.76
2019-04-06T11:41:24.817Z,57.44
2019-04-06T11:44:11.255Z,54.25
2019-04-06T11:46:49.876Z,52.82
2019-04-06T11:49:32.801Z,53.38
2019-04-06T11:52:02.969Z,55.27
2019-04-06T11:54:38.600Z,55.00
2019-04-06T11:57:14.509Z,53.95
2019-04-06T11:59:46.896Z,53.39
2019-04-06T12:02:26.568Z,53.82
2019-04-06T12:05:11.214Z,52.79
2019-04-06T12:07:42.145Z,51.03
2019-04-06T12:10:12.090Z,51.89
2019-04-06T12:12:57.416Z,50.63
2019-04-06T12:15:33.657Z,50.62
2019-04-06T12:18:17.906Z,51.98
2019-04-06T12:21:02.904Z,50.14
2019-04-06T12:23:34.402Z,53.12
2019-04-06T12:26:22.362Z,50.66
2019-04-06T12:28:55.231Z,53.28
2019-04-06T12:31:25.157Z,52.31
2019-04-06T12:34:01.173Z,52.38
2019-04-06T12:36:33.842Z,50.58
2019-04-06T12:39:06.186Z,48.74
2019-04-06T12:41:51.155Z,50.01
2019-04-06T12:44:24.478Z,50.83
2019-04-06T12:46:54.402Z,50.83
2019-04-06T12:49:24.879Z,47.19
2019-04-06T12:52:07.084Z,47.08
2019-04-06T12:54:52.033Z,47.69
2019-04-06T12:57:31.001Z,48.46
2019-04-06T13:00:07.392Z,48.46
2019-04-06T13:02:40.264Z,49.47
2019-04-06T13:05:13.596Z,48.68
2019-04-06T13:07:46.688Z,49.09
2019-04-06T13:10:19.044Z,47.52
2019-04-06T13:12:57.838Z,49.51
2019-04-06T13:15:36.574Z,49.51
2019-04-06T13:18:09.449Z,45.05
2019-04-06T13:20:48.641Z,44.25
2019-04-06T13:23:27.460Z,44.25
2019-04-06T13:25:57.470Z,44.81
2019-04-06T13:28:33.427Z,45.89
2019-04-06T13:31:18.291Z,43.96
2019-04-06T13:33:54.632Z,46.91
2019-04-06T13:36:24.827Z,45.70
2019-04-06T13:38:54.452Z,46.25
2019-04-06T13:41:27.076Z,42.68
2019-04-06T13:43:56.998Z,44.31
2019-04-06T13:46:27.670Z,45.05
2019-04-06T13:49:04.530Z,44.67
2019-04-06T13:51:54.089Z,44.67
2019-04-06T13:54:39.349Z,43.49
2019-04-06T13:57:12.616Z,43.52
2019-04-06T13:59:54.372Z,44.85
2019-04-06T14:02:30.275Z,44.04
2019-04-06T14:05:00.622Z,42.13
2019-04-06T14:07:45.945Z,43.87
2019-04-06T14:10:19.007Z,44.36
2019-04-06T14:12:49.755Z,42.46
2019-04-06T14:15:19.920Z,42.03
2019-04-06T14:18:07.806Z,41.78
2019-04-06T14:20:37.772Z,44.72
2019-04-06T14:23:23.857Z,44.01
2019-04-06T14:26:06.774Z,43.85
2019-04-06T14:28:39.644Z,42.48
2019-04-06T14:31:09.781Z,43.41
2019-04-06T14:33:48.536Z,41.25
2019-04-06T14:36:24.286Z,41.89
2019-04-06T14:38:54.208Z,41.45
2019-04-06T14:41:26.821Z,42.73
2019-04-06T14:44:00.332Z,42.38
2019-04-06T14:46:30.228Z,42.21
2019-04-06T14:49:28.496Z,43.89
2019-04-06T14:51:51.072Z,43.89
2019-04-06T14:54:21.433Z,45.24
2019-04-06T14:56:57.168Z,48.08
2019-04-06T14:59:43.728Z,48.51
2019-04-06T15:02:19.624Z,50.64
2019-04-06T15:05:01.277Z,52.90
2019-04-06T15:07:36.960Z,52.90
2019-04-06T15:10:19.871Z,52.96
2019-04-06T15:13:02.031Z,53.23
2019-04-06T15:15:37.693Z,54.22
2019-04-06T15:18:14.168Z,55.33
2019-04-06T15:20:44.042Z,56.41
2019-04-06T15:23:17.049Z,55.65
2019-04-06T15:26:01.692Z,54.57
2019-04-06T15:28:34.251Z,55.73
2019-04-06T15:31:07.718Z,56.73
2019-04-06T15:33:40.092Z,57.70
2019-04-06T15:36:25.320Z,57.23
2019-04-06T15:39:11.424Z,58.69
2019-04-06T15:41:57.523Z,59.38
2019-04-06T15:44:30.827Z,60.08
2019-04-06T15:47:17.228Z,61.21
2019-04-06T15:49:58.910Z,61.55
2019-04-06T15:52:37.835Z,61.82
2019-04-06T15:55:11.232Z,61.78
2019-04-06T15:57:47.422Z,61.34
2019-04-06T16:00:19.831Z,61.52
2019-04-06T16:02:51.435Z,61.79
2019-04-06T16:05:24.834Z,62.88
2019-04-06T16:07:58.223Z,62.61
2019-04-06T16:10:37.666Z,62.39
2019-04-06T16:13:07.597Z,62.17
2019-04-06T16:15:37.556Z,62.16
2019-04-06T16:18:10.383Z,61.74
2019-04-06T16:20:42.967Z,62.27
2019-04-06T16:23:13.636Z,62.76
2019-04-06T16:25:52.482Z,62.18
2019-04-06T16:28:22.380Z,62.17
2019-04-06T16:30:57.748Z,62.50
2019-04-06T16:33:36.062Z,61.79
2019-04-06T16:36:09.815Z,61.56
2019-04-06T16:38:42.907Z,61.42
2019-04-06T16:41:18.851Z,60.89
2019-04-06T16:43:54.929Z,61.54
2019-04-06T16:46:41.739Z,61.79
2019-04-06T16:49:23.957Z,61.34
2019-04-06T16:51:54.198Z,61.91
2019-04-06T16:54:24.584Z,61.82
2019-04-06T16:56:57.097Z,61.89
2019-04-06T16:59:29.987Z,61.81
2019-04-06T17:02:24.342Z,61.88
2019-04-06T17:05:04.952Z,61.96
2019-04-06T17:07:37.824Z,63.17
2019-04-06T17:10:23.058Z,61.48
2019-04-06T17:13:08.959Z,62.46
2019-04-06T17:15:38.881Z,63.02
2019-04-06T17:18:09.256Z,62.36
2019-04-06T17:20:39.179Z,62.36
2019-04-06T17:23:09.539Z,62.21
2019-04-06T17:25:51.929Z,61.94
2019-04-06T17:28:38.323Z,62.21
2019-04-06T17:31:17.395Z,62.75
2019-04-06T17:33:56.250Z,62.79
2019-04-06T17:36:43.086Z,63.48
2019-04-06T17:39:31.347Z,64.10
2019-04-06T17:42:16.843Z,64.88
2019-04-06T17:44:52.438Z,65.02
2019-04-06T17:47:38.482Z,64.79
2019-04-06T17:50:24.676Z,65.16
2019-04-06T17:52:55.478Z,65.53
2019-04-06T17:55:40.327Z,65.57
2019-04-06T17:58:10.756Z,65.13
2019-04-06T18:00:40.757Z,65.26
2019-04-06T18:03:26.362Z,65.04
2019-04-06T18:06:12.631Z,64.95
2019-04-06T18:08:49.012Z,64.54
2019-04-06T18:11:19.335Z,65.33
2019-04-06T18:13:48.683Z,66.02
2019-04-06T18:16:18.596Z,65.77
2019-04-06T18:18:47.395Z,65.99
2019-04-06T18:21:16.458Z,66.75
2019-04-06T18:23:44.870Z,67.01
2019-04-06T18:26:13.123Z,66.77
2019-04-06T18:28:41.784Z,67.00
2019-04-06T18:31:28.534Z,68.59
2019-04-06T18:33:57.286Z,69.44
2019-04-06T18:36:27.632Z,68.65
2019-04-06T18:38:57.139Z,68.64
2019-04-06T18:41:26.192Z,68.12
2019-04-06T18:43:54.668Z,67.85
2019-04-06T18:46:22.910Z,68.18
2019-04-06T18:48:51.205Z,69.52
2019-04-06T18:51:20.695Z,69.51
2019-04-06T18:53:49.066Z,69.51
2019-04-06T18:56:17.327Z,68.90
2019-04-06T18:58:46.180Z,68.93
2019-04-06T19:01:14.595Z,69.15
2019-04-06T19:03:43.373Z,69.43
2019-04-06T19:06:12.398Z,70.89
2019-04-06T19:08:40.843Z,70.56
2019-04-06T19:11:09.761Z,70.10
2019-04-06T19:13:39.003Z,70.95
2019-04-06T19:16:07.380Z,70.83
2019-04-06T19:18:36.250Z,68.50
2019-04-06T19:21:04.734Z,68.00
2019-04-06T19:23:34.384Z,66.46
2019-04-06T19:26:03.007Z,66.33
2019-04-06T19:28:32.284Z,65.64
2019-04-06T19:31:00.934Z,65.01
2019-04-06T19:33:29.420Z,65.17
2019-04-06T19:35:57.639Z,63.09
2019-04-06T19:38:25.926Z,62.47
2019-04-06T19:40:54.204Z,62.90
2019-04-06T19:43:22.936Z,63.36
2019-04-06T19:45:51.337Z,64.16
2019-04-06T19:48:20.006Z,65.67
2019-04-06T19:50:48.829Z,65.14
2019-04-06T19:53:17.731Z,65.35
2019-04-06T19:55:46.103Z,64.40
2019-04-06T19:58:15.218Z,65.08
2019-04-06T20:00:44.067Z,65.71
2019-04-06T20:03:12.483Z,66.42
2019-04-06T20:05:41.146Z,65.93
2019-04-06T20:08:09.828Z,65.96
2019-04-06T20:10:38.591Z,65.60
2019-04-06T20:13:07.351Z,65.33
2019-04-06T20:15:35.565Z,64.57
2019-04-06T20:18:03.849Z,64.67
2019-04-06T20:20:32.111Z,64.72
2019-04-06T20:23:00.512Z,63.96
2019-04-06T20:25:28.730Z,64.25
2019-04-06T20:27:57.617Z,64.36
2019-04-06T20:30:25.839Z,64.52
2019-04-06T20:32:54.102Z,64.94
2019-04-06T20:35:23.417Z,64.37
2019-04-06T20:37:52.713Z,65.07
2019-04-06T20:40:21.062Z,64.36
2019-04-06T20:42:49.996Z,64.39
2019-04-06T20:45:18.285Z,64.67
2019-04-06T20:47:46.549Z,64.47
2019-04-06T20:50:14.832Z,64.61
2019-04-06T20:52:43.097Z,64.85
2019-04-06T20:55:12.420Z,64.87
2019-04-06T20:57:41.754Z,64.78
2019-04-06T21:00:10.040Z,64.66
2019-04-06T21:02:38.303Z,65.33
2019-04-06T21:05:07.218Z,65.69
2019-04-06T21:07:36.043Z,64.83
2019-04-06T21:10:06.563Z,66.43
2019-04-06T21:12:35.207Z,67.11
2019-04-06T21:15:16.034Z,64.28
2019-04-06T21:17:34.308Z,64.17
2019-04-06T21:20:02.746Z,64.38
2019-04-06T21:22:31.067Z,66.30
2019-04-06T21:24:59.406Z,67.43
2019-04-06T21:27:28.743Z,67.65
2019-04-06T21:29:57.171Z,67.27
2019-04-06T21:32:26.057Z,66.57
2019-04-06T21:34:54.834Z,64.73
2019-04-06T21:37:23.135Z,66.60
2019-04-06T21:39:52.217Z,66.03
2019-04-06T21:42:20.931Z,65.73
2019-04-06T21:44:49.208Z,66.19
2019-04-06T21:47:17.469Z,66.64
2019-04-06T21:49:45.752Z,67.60
2019-04-06T21:52:14.076Z,66.59
2019-04-06T21:54:42.372Z,66.52
2019-04-06T21:57:11.402Z,66.24
2019-04-06T21:59:40.578Z,66.65
2019-04-06T22:02:08.801Z,66.68
2019-04-06T22:04:37.410Z,66.53
2019-04-06T22:07:06.438Z,67.04
2019-04-06T22:09:34.671Z,66.51
2019-04-06T22:12:03.341Z,66.85
2019-04-06T22:14:31.679Z,67.98
2019-04-06T22:16:59.984Z,69.65
2019-04-06T22:19:28.242Z,68.51
2019-04-06T22:21:57.281Z,68.68
2019-04-06T22:24:26.390Z,69.13
2019-04-06T22:26:55.050Z,71.39
2019-04-06T22:29:23.853Z,70.39
2019-04-06T22:31:52.121Z,70.83
2019-04-06T22:34:20.420Z,69.29
2019-04-06T22:36:48.678Z,70.16
2019-04-06T22:39:16.940Z,69.69
2019-04-06T22:41:45.798Z,69.60
2019-04-06T22:44:14.423Z,69.73
2019-04-06T22:46:43.070Z,69.12
2019-04-06T22:49:11.299Z,69.72
2019-04-06T22:51:40.815Z,70.91
2019-04-06T22:54:09.039Z,71.01
2019-04-06T22:56:37.436Z,70.80
2019-04-06T22:59:06.243Z,70.24
2019-04-06T23:01:36.894Z,70.02
2019-04-06T23:04:13.324Z,69.91
2019-04-06T23:06:43.267Z,69.47
2019-04-06T23:09:12.194Z,68.42
2019-04-06T23:11:40.946Z,68.29
2019-04-06T23:14:09.222Z,68.09
2019-04-06T23:16:39.311Z,67.84
2019-04-06T23:19:08.145Z,66.95
2019-04-06T23:21:36.445Z,67.87
2019-04-06T23:24:04.879Z,66.55
2019-04-06T23:26:34.458Z,67.86
2019-04-06T23:29:03.391Z,70.03
2019-04-06T23:31:32.284Z,69.13
2019-04-06T23:34:01.121Z,69.45
2019-04-06T23:36:29.492Z,68.86
2019-04-06T23:38:57.766Z,70.50
2019-04-06T23:41:26.777Z,68.67
2019-04-06T23:43:55.631Z,67.24
2019-04-06T23:46:24.561Z,69.01
2019-04-06T23:48:54.171Z,68.97
2019-04-06T23:51:23.386Z,68.86
2019-04-06T23:53:52.523Z,68.76
2019-04-06T23:56:20.819Z,67.87
2019-04-06T23:58:49.079Z,67.50
